createdAt,value
2022-11-24T00:01:17.894Z,2.83
2022-11-24T00:03:46.507Z,2.82
2022-11-24T00:06:15.549Z,2.84
2022-11-24T00:08:44.460Z,2.84
2022-11-24T00:11:14.943Z,2.75
2022-11-24T00:13:42.113Z,2.81
2022-11-24T00:16:12.967Z,2.82
2022-11-24T00:18:41.294Z,2.88
2022-11-24T00:21:08.776Z,2.91
2022-11-24T00:23:36.368Z,2.91
2022-11-24T00:26:08.196Z,2.87
2022-11-24T00:28:36.237Z,2.86
2022-11-24T00:31:05.046Z,2.79
2022-11-24T00:33:32.359Z,2.69
2022-11-24T00:36:00.393Z,2.59
2022-11-24T00:38:27.524Z,2.53
2022-11-24T00:40:54.330Z,2.60
2022-11-24T00:43:21.351Z,2.44
2022-11-24T00:45:48.519Z,2.32
2022-11-24T00:48:15.524Z,2.24
2022-11-24T00:50:42.389Z,2.25
2022-11-24T00:53:10.265Z,2.27
2022-11-24T00:55:37.098Z,2.22
2022-11-24T00:58:04.001Z,2.20
2022-11-24T01:00:30.821Z,2.09
2022-11-24T01:02:57.775Z,2.09
2022-11-24T01:05:24.631Z,2.04
2022-11-24T01:07:51.654Z,2.02
2022-11-24T01:10:18.648Z,1.92
2022-11-24T01:12:45.511Z,1.94
2022-11-24T01:15:12.284Z,1.86
2022-11-24T01:17:39.081Z,1.88
2022-11-24T01:20:07.556Z,1.78
2022-11-24T01:22:35.098Z,1.70
2022-11-24T01:25:01.923Z,1.63
2022-11-24T01:27:28.795Z,1.70
2022-11-24T01:29:55.656Z,1.54
2022-11-24T01:32:22.574Z,1.49
2022-11-24T01:34:49.551Z,1.56
2022-11-24T01:37:16.501Z,1.47
2022-11-24T01:39:43.346Z,1.38
2022-11-24T01:42:10.647Z,1.36
2022-11-24T01:44:37.497Z,1.37
2022-11-24T01:47:36.048Z,1.33
2022-11-24T01:50:04.957Z,1.33
2022-11-24T01:52:45.322Z,1.50
2022-11-24T01:55:15.771Z,1.59
2022-11-24T01:57:48.493Z,1.70
2022-11-24T02:00:16.119Z,1.77
2022-11-24T02:02:45.074Z,1.73
2022-11-24T02:05:23.929Z,1.80
2022-11-24T02:07:54.316Z,1.78
2022-11-24T02:10:22.229Z,1.87
2022-11-24T02:12:51.824Z,1.97
2022-11-24T02:15:19.217Z,1.85
2022-11-24T02:17:45.982Z,1.87
2022-11-24T02:20:14.843Z,1.96
2022-11-24T02:23:15.718Z,2.11
2022-11-24T02:25:49.034Z,2.19
2022-11-24T02:28:19.223Z,2.18
2022-11-24T02:30:46.302Z,2.14
2022-11-24T02:33:14.059Z,2.24
2022-11-24T02:35:41.259Z,2.20
2022-11-24T02:38:11.907Z,2.18
2022-11-24T02:40:42.251Z,2.25
2022-11-24T02:43:11.109Z,2.15
2022-11-24T02:45:37.883Z,2.21
2022-11-24T02:48:05.223Z,2.14
2022-11-24T02:50:32.140Z,1.75
2022-11-24T02:52:58.965Z,1.48
2022-11-24T02:55:25.891Z,1.18
2022-11-24T02:57:52.795Z,1.05
2022-11-24T03:00:19.827Z,1.06
2022-11-24T03:02:46.768Z,0.85
2022-11-24T03:05:13.749Z,0.94
2022-11-24T03:07:40.698Z,0.92
2022-11-24T03:10:08.046Z,0.88
2022-11-24T03:12:34.881Z,0.89
2022-11-24T03:15:03.353Z,0.83
2022-11-24T03:17:30.307Z,0.93
2022-11-24T03:20:01.529Z,0.81
2022-11-24T03:22:31.363Z,0.60
2022-11-24T03:24:58.251Z,0.68
2022-11-24T03:27:25.115Z,0.54
2022-11-24T03:29:51.984Z,0.50
2022-11-24T03:32:18.903Z,0.68
2022-11-24T03:34:45.677Z,0.58
2022-11-24T03:37:12.595Z,0.50
2022-11-24T03:39:39.440Z,0.49
2022-11-24T03:42:06.346Z,0.50
2022-11-24T03:44:33.397Z,0.56
2022-11-24T03:47:00.496Z,0.48
2022-11-24T03:49:27.289Z,0.66
2022-11-24T03:51:54.485Z,0.70
2022-11-24T03:54:21.360Z,0.86
2022-11-24T03:56:48.321Z,0.97
2022-11-24T03:59:15.129Z,0.95
2022-11-24T04:01:42.131Z,1.04
2022-11-24T04:04:11.195Z,1.13
2022-11-24T04:06:38.232Z,1.12
2022-11-24T04:09:05.109Z,1.19
2022-11-24T04:11:50.493Z,1.13
2022-11-24T04:14:18.563Z,0.95
2022-11-24T04:16:45.499Z,0.99
2022-11-24T04:19:12.390Z,0.99
2022-11-24T04:21:39.185Z,1.11
2022-11-24T04:24:06.275Z,1.01
2022-11-24T04:26:33.097Z,0.89
2022-11-24T04:29:00.989Z,0.82
2022-11-24T04:31:27.832Z,0.81
2022-11-24T04:33:54.693Z,0.75
2022-11-24T04:36:21.535Z,0.61
2022-11-24T04:39:25.523Z,0.71
2022-11-24T04:41:35.422Z,0.75
2022-11-24T04:44:02.240Z,0.67
2022-11-24T04:46:29.101Z,0.90
2022-11-24T04:48:55.944Z,0.95
2022-11-24T04:51:22.963Z,0.99
2022-11-24T04:53:49.773Z,1.15
2022-11-24T04:56:16.627Z,0.99
2022-11-24T04:58:43.441Z,0.97
2022-11-24T05:01:10.303Z,0.82
2022-11-24T05:03:37.477Z,0.95
2022-11-24T05:06:04.596Z,0.94
2022-11-24T05:08:31.569Z,1.06
2022-11-24T05:11:04.439Z,1.03
2022-11-24T05:13:31.848Z,0.96
2022-11-24T05:16:00.369Z,0.97
2022-11-24T05:18:27.346Z,0.90
2022-11-24T05:20:54.190Z,0.67
2022-11-24T05:23:21.010Z,0.82
2022-11-24T05:25:48.149Z,0.68
2022-11-24T05:28:15.630Z,0.78
2022-11-24T05:30:42.674Z,0.74
2022-11-24T05:33:23.202Z,0.59
2022-11-24T05:35:50.459Z,0.63
2022-11-24T05:38:18.262Z,0.82
2022-11-24T05:40:45.265Z,0.86
2022-11-24T05:43:13.261Z,1.13
2022-11-24T05:45:40.227Z,1.08
2022-11-24T05:48:13.556Z,1.12
2022-11-24T05:50:40.429Z,1.03
2022-11-24T05:53:10.842Z,1.11
2022-11-24T05:55:38.474Z,1.01
2022-11-24T05:58:08.574Z,1.07
2022-11-24T06:00:36.172Z,1.12
2022-11-24T06:03:03.263Z,1.14
2022-11-24T06:05:30.455Z,1.21
2022-11-24T06:07:59.552Z,1.33
2022-11-24T06:10:26.950Z,1.41
2022-11-24T06:12:53.727Z,1.43
2022-11-24T06:15:20.834Z,1.54
2022-11-24T06:17:55.876Z,1.55
2022-11-24T06:20:27.206Z,1.37
2022-11-24T06:22:59.293Z,1.31
2022-11-24T06:25:26.797Z,1.47
2022-11-24T06:27:53.697Z,1.44
2022-11-24T06:30:20.546Z,1.44
2022-11-24T06:32:49.703Z,1.52
2022-11-24T06:35:17.564Z,1.48
2022-11-24T06:37:45.884Z,1.40
2022-11-24T06:40:13.046Z,1.56
2022-11-24T06:42:39.874Z,1.52
2022-11-24T06:45:09.365Z,1.65
2022-11-24T06:47:37.149Z,1.54
2022-11-24T06:50:04.739Z,1.77
2022-11-24T06:52:31.637Z,1.80
2022-11-24T06:54:58.540Z,1.82
2022-11-24T06:57:25.330Z,2.14
2022-11-24T06:59:52.327Z,1.93
2022-11-24T07:02:20.299Z,2.05
2022-11-24T07:04:47.329Z,2.24
2022-11-24T07:07:14.196Z,2.37
2022-11-24T07:09:41.034Z,2.58
2022-11-24T07:12:08.011Z,2.66
2022-11-24T07:14:35.328Z,2.51
2022-11-24T07:17:02.764Z,2.53
2022-11-24T07:19:29.734Z,2.96
2022-11-24T07:21:56.808Z,2.95
2022-11-24T07:24:23.704Z,2.95
2022-11-24T07:26:50.603Z,2.79
2022-11-24T07:29:17.562Z,2.86
2022-11-24T07:31:46.146Z,3.21
2022-11-24T07:34:14.922Z,2.87
2022-11-24T07:36:42.983Z,3.17
2022-11-24T07:39:09.869Z,3.20
2022-11-24T07:41:36.735Z,3.29
2022-11-24T07:44:03.881Z,3.37
2022-11-24T07:46:30.680Z,3.47
2022-11-24T07:48:57.612Z,3.37
2022-11-24T07:51:24.631Z,3.75
2022-11-24T07:53:51.524Z,3.68
2022-11-24T07:56:18.412Z,3.84
2022-11-24T07:58:49.762Z,3.82
2022-11-24T08:01:19.838Z,3.61
2022-11-24T08:03:47.627Z,3.71
2022-11-24T08:06:26.162Z,3.46
2022-11-24T08:08:56.500Z,3.50
2022-11-24T08:11:24.128Z,3.62
2022-11-24T08:13:51.406Z,3.72
2022-11-24T08:16:19.559Z,3.83
2022-11-24T08:18:54.108Z,3.79
2022-11-24T08:21:23.413Z,3.83
2022-11-24T08:23:55.155Z,3.90
2022-11-24T08:26:21.994Z,3.85
2022-11-24T08:28:54.123Z,3.81
2022-11-24T08:31:21.127Z,3.81
2022-11-24T08:33:48.092Z,3.81
2022-11-24T08:36:17.839Z,4.01
2022-11-24T08:38:45.467Z,4.02
2022-11-24T08:41:15.087Z,4.17
2022-11-24T08:43:42.665Z,4.16
2022-11-24T08:46:12.200Z,4.45
2022-11-24T08:48:39.625Z,4.59
2022-11-24T08:51:12.011Z,4.47
2022-11-24T08:53:39.824Z,4.65
2022-11-24T08:56:07.698Z,4.91
2022-11-24T08:58:35.380Z,4.97
2022-11-24T09:01:20.661Z,4.78
2022-11-24T09:03:51.082Z,4.82
2022-11-24T09:06:23.650Z,4.83
2022-11-24T09:08:51.958Z,4.84
2022-11-24T09:11:19.858Z,4.90
2022-11-24T09:13:46.742Z,4.94
2022-11-24T09:16:23.187Z,4.75
2022-11-24T09:18:55.735Z,4.65
2022-11-24T09:21:23.554Z,4.35
2022-11-24T09:23:52.227Z,4.09
2022-11-24T09:26:22.757Z,4.09
2022-11-24T09:28:54.645Z,4.07
2022-11-24T09:31:30.267Z,4.20
2022-11-24T09:33:57.872Z,4.62
2022-11-24T09:36:25.053Z,4.90
2022-11-24T09:38:52.037Z,5.12
2022-11-24T09:41:28.192Z,5.71
2022-11-24T09:44:13.184Z,5.93
2022-11-24T09:47:05.655Z,5.44
2022-11-24T09:49:51.083Z,5.55
2022-11-24T09:52:23.387Z,5.52
2022-11-24T09:55:03.221Z,5.65
2022-11-24T09:57:37.412Z,5.81
2022-11-24T10:00:13.467Z,5.75
2022-11-24T10:02:40.402Z,5.83
2022-11-24T10:05:07.574Z,6.01
2022-11-24T10:07:45.171Z,6.05
2022-11-24T10:10:25.219Z,6.04
2022-11-24T10:13:29.620Z,6.10
2022-11-24T10:16:10.727Z,6.03
2022-11-24T10:18:55.972Z,6.21
2022-11-24T10:21:41.108Z,6.23
2022-11-24T10:24:29.348Z,6.39
2022-11-24T10:27:18.403Z,6.51
2022-11-24T10:29:50.427Z,6.36
2022-11-24T10:32:19.909Z,6.57
2022-11-24T10:34:51.455Z,6.65
2022-11-24T10:37:40.841Z,6.68
2022-11-24T10:40:56.629Z,6.70
2022-11-24T10:43:21.086Z,6.67
2022-11-24T10:45:48.412Z,6.79
2022-11-24T10:48:24.323Z,6.81
2022-11-24T10:50:55.065Z,6.91
2022-11-24T10:53:30.897Z,7.05
2022-11-24T10:55:58.547Z,7.13
2022-11-24T10:58:36.065Z,7.14
2022-11-24T11:01:13.514Z,7.35
2022-11-24T11:03:48.051Z,7.41
2022-11-24T11:06:27.945Z,7.37
2022-11-24T11:09:07.172Z,7.33
2022-11-24T11:11:43.099Z,7.29
2022-11-24T11:14:13.084Z,7.24
2022-11-24T11:16:52.656Z,7.24
2022-11-24T11:19:54.169Z,7.39
2022-11-24T11:22:29.176Z,7.51
2022-11-24T11:25:23.714Z,7.56
2022-11-24T11:27:51.149Z,7.72
2022-11-24T11:36:23.634Z,7.86
2022-11-24T11:38:51.026Z,8.01
2022-11-24T11:41:24.322Z,8.19
2022-11-24T11:44:02.799Z,8.25
2022-11-24T11:46:32.724Z,8.27
2022-11-24T11:49:00.289Z,8.33
2022-11-24T11:51:39.324Z,8.46
2022-11-24T11:54:25.597Z,8.55
2022-11-24T11:57:10.600Z,8.49
2022-11-24T11:59:48.477Z,8.53
2022-11-24T12:03:02.634Z,8.61
2022-11-24T12:05:35.321Z,8.60
2022-11-24T12:08:28.391Z,8.58
2022-11-24T12:11:19.572Z,8.74
2022-11-24T12:13:58.470Z,8.63
2022-11-24T12:16:31.015Z,8.61
2022-11-24T12:19:03.845Z,8.71
2022-11-24T12:22:00.997Z,8.83
2022-11-24T12:24:50.273Z,8.87
2022-11-24T12:27:39.251Z,8.92
2022-11-24T12:30:16.066Z,9.03
2022-11-24T12:33:04.690Z,9.13
2022-11-24T12:35:37.828Z,9.18
2022-11-24T12:38:10.621Z,9.25
2022-11-24T12:41:25.618Z,9.17
2022-11-24T12:43:58.816Z,9.23
2022-11-24T12:47:03.017Z,9.42
2022-11-24T12:49:38.924Z,9.39
2022-11-24T12:52:19.671Z,9.38
2022-11-24T12:54:46.625Z,9.41
2022-11-24T12:57:25.725Z,9.26
2022-11-24T13:00:29.623Z,9.32
2022-11-24T13:03:41.042Z,9.33
2022-11-24T13:06:17.284Z,9.38
2022-11-24T13:08:44.819Z,9.59
2022-11-24T13:11:24.075Z,9.56
2022-11-24T13:14:00.834Z,9.67
2022-11-24T13:16:36.069Z,9.61
2022-11-24T13:19:15.160Z,9.69
2022-11-24T13:21:43.016Z,9.67
2022-11-24T13:24:20.055Z,9.64
2022-11-24T13:26:49.853Z,9.69
2022-11-24T13:29:28.954Z,9.66
2022-11-24T13:32:15.741Z,9.68
2022-11-24T13:34:43.101Z,9.69
2022-11-24T13:37:31.723Z,9.75
2022-11-24T13:40:14.450Z,9.79
2022-11-24T13:42:56.563Z,9.72
2022-11-24T13:45:42.068Z,9.70
2022-11-24T13:48:22.315Z,9.65
2022-11-24T13:50:49.693Z,9.56
2022-11-24T13:53:37.311Z,9.52
2022-11-24T13:56:12.806Z,9.49
2022-11-24T13:58:45.082Z,9.42
2022-11-24T14:01:26.492Z,9.38
2022-11-24T14:06:51.679Z,9.38
2022-11-24T14:09:30.819Z,9.28
2022-11-24T14:12:06.749Z,9.22
2022-11-24T14:14:34.234Z,9.11
2022-11-24T14:17:24.819Z,9.02
2022-11-24T14:19:54.148Z,8.97
2022-11-24T14:22:27.884Z,8.94
2022-11-24T14:24:57.614Z,8.96
2022-11-24T14:27:45.964Z,9.02
2022-11-24T14:30:13.753Z,8.92
2022-11-24T14:32:40.737Z,8.86
2022-11-24T14:35:24.132Z,8.74
2022-11-24T14:37:51.188Z,8.67
2022-11-24T14:40:38.071Z,8.58
2022-11-24T14:43:15.359Z,8.54
2022-11-24T14:45:58.368Z,8.48
2022-11-24T14:48:36.529Z,8.52
2022-11-24T14:51:14.766Z,8.57
2022-11-24T14:53:45.173Z,8.46
2022-11-24T14:56:38.492Z,8.52
2022-11-24T14:59:21.553Z,8.54
2022-11-24T15:01:48.614Z,8.59
2022-11-24T15:04:32.317Z,8.56
2022-11-24T15:07:14.200Z,8.55
2022-11-24T15:09:53.186Z,8.38
2022-11-24T15:12:39.914Z,8.21
2022-11-24T15:15:13.931Z,8.07
2022-11-24T15:17:46.903Z,7.92
2022-11-24T15:20:26.615Z,7.88
2022-11-24T15:23:12.400Z,7.72
2022-11-24T15:25:39.461Z,7.61
2022-11-24T15:28:06.245Z,7.58
2022-11-24T15:30:35.555Z,7.60
2022-11-24T15:33:02.898Z,7.63
2022-11-24T15:35:32.256Z,7.64
2022-11-24T15:37:59.471Z,7.77
2022-11-24T15:40:26.320Z,7.96
2022-11-24T15:42:59.643Z,8.00
2022-11-24T15:45:30.359Z,7.83
2022-11-24T15:47:57.181Z,7.68
2022-11-24T15:50:24.097Z,7.61
2022-11-24T15:52:51.295Z,7.48
2022-11-24T15:55:20.568Z,7.32
2022-11-24T15:57:48.081Z,7.26
2022-11-24T16:00:22.580Z,7.24
2022-11-24T16:02:50.404Z,7.27
2022-11-24T16:05:18.029Z,7.31
2022-11-24T16:07:44.981Z,7.34
2022-11-24T16:10:25.934Z,7.29
2022-11-24T16:12:52.915Z,7.29
2022-11-24T16:15:19.736Z,7.19
2022-11-24T16:17:47.003Z,7.26
2022-11-24T16:20:14.413Z,7.34
2022-11-24T16:22:41.895Z,7.23
2022-11-24T16:25:09.353Z,7.36
2022-11-24T16:27:36.297Z,7.44
2022-11-24T16:30:03.527Z,7.48
2022-11-24T16:32:30.385Z,7.52
2022-11-24T16:34:57.481Z,7.54
2022-11-24T16:37:24.566Z,7.51
2022-11-24T16:39:51.413Z,7.44
2022-11-24T16:42:18.355Z,7.41
2022-11-24T16:44:45.179Z,7.34
2022-11-24T16:47:13.127Z,7.31
2022-11-24T16:49:40.048Z,7.20
2022-11-24T16:52:08.637Z,7.23
2022-11-24T16:54:35.736Z,7.12
2022-11-24T16:57:02.702Z,6.98
2022-11-24T16:59:29.543Z,6.89
2022-11-24T17:01:56.471Z,6.77
2022-11-24T17:04:23.570Z,6.83
2022-11-24T17:06:51.161Z,6.79
2022-11-24T17:09:19.023Z,6.77
2022-11-24T17:11:46.042Z,6.69
2022-11-24T17:14:13.143Z,6.67
2022-11-24T17:16:40.061Z,6.73
2022-11-24T17:19:06.938Z,6.80
2022-11-24T17:21:33.797Z,6.85
2022-11-24T17:24:05.455Z,6.87
2022-11-24T17:26:33.707Z,6.84
2022-11-24T17:29:00.554Z,6.80
2022-11-24T17:31:40.248Z,6.79
2022-11-24T17:34:08.159Z,6.82
2022-11-24T17:36:35.254Z,6.85
2022-11-24T17:39:11.221Z,6.86
2022-11-24T17:41:38.196Z,6.69
2022-11-24T17:44:06.328Z,6.64
2022-11-24T17:46:33.479Z,6.60
2022-11-24T17:49:00.387Z,6.52
2022-11-24T17:51:27.572Z,6.47
2022-11-24T17:53:55.788Z,6.51
2022-11-24T17:56:24.931Z,6.51
2022-11-24T17:58:56.462Z,6.51
2022-11-24T18:01:24.503Z,6.44
2022-11-24T18:03:53.706Z,6.39
2022-11-24T18:06:24.248Z,6.37
2022-11-24T18:08:51.138Z,6.39
2022-11-24T18:11:24.705Z,6.34
2022-11-24T18:14:00.558Z,6.26
2022-11-24T18:16:31.249Z,6.20
2022-11-24T18:19:10.128Z,6.19
2022-11-24T18:21:39.542Z,6.29
2022-11-24T18:24:07.782Z,6.32
2022-11-24T18:26:34.728Z,6.49
2022-11-24T18:29:01.594Z,6.56
2022-11-24T18:31:29.666Z,6.59
2022-11-24T18:33:56.998Z,6.53
2022-11-24T18:36:29.942Z,6.52
2022-11-24T18:38:57.807Z,6.65
2022-11-24T18:41:24.680Z,6.62
2022-11-24T18:43:51.604Z,6.68
2022-11-24T18:46:18.879Z,6.83
2022-11-24T18:48:46.387Z,6.73
2022-11-24T18:51:16.464Z,6.65
2022-11-24T18:53:44.043Z,6.63
2022-11-24T18:56:16.129Z,6.69
2022-11-24T18:58:43.765Z,6.63
2022-11-24T19:01:16.806Z,6.66
2022-11-24T19:03:48.944Z,6.62
2022-11-24T19:06:29.011Z,6.63
2022-11-24T19:08:56.254Z,6.58
2022-11-24T19:11:28.539Z,6.59
2022-11-24T19:13:56.789Z,6.61
2022-11-24T19:16:24.650Z,6.63
2022-11-24T19:18:54.228Z,6.66
2022-11-24T19:21:22.638Z,6.73
2022-11-24T19:23:50.221Z,6.62
2022-11-24T19:26:17.448Z,6.49
2022-11-24T19:28:44.727Z,6.41
2022-11-24T19:31:13.668Z,6.51
2022-11-24T19:33:41.404Z,6.53
2022-11-24T19:36:12.586Z,6.61
2022-11-24T19:38:39.574Z,6.63
2022-11-24T19:41:11.930Z,6.56
2022-11-24T19:43:39.795Z,6.60
2022-11-24T19:46:11.860Z,6.73
2022-11-24T19:48:41.512Z,6.87
2022-11-24T19:51:11.988Z,6.91
2022-11-24T19:53:39.303Z,6.70
2022-11-24T19:56:08.442Z,6.69
2022-11-24T19:58:35.935Z,6.73
2022-11-24T20:01:20.512Z,6.53
2022-11-24T20:03:53.234Z,6.63
2022-11-24T20:06:20.071Z,6.48
2022-11-24T20:08:46.849Z,6.39
2022-11-24T20:11:19.518Z,6.43
2022-11-24T20:13:47.171Z,6.44
2022-11-24T20:16:20.093Z,6.27
2022-11-24T20:18:48.072Z,6.21
2022-11-24T20:21:20.035Z,6.10
2022-11-24T20:23:53.622Z,6.06
2022-11-24T20:26:23.215Z,6.21
2022-11-24T20:28:54.305Z,6.23
2022-11-24T20:31:30.645Z,6.28
2022-11-24T20:33:59.051Z,6.43
2022-11-24T20:36:28.869Z,6.44
2022-11-24T20:38:56.631Z,6.42
2022-11-24T20:41:26.392Z,6.39
2022-11-24T20:43:54.668Z,6.38
2022-11-24T20:46:24.186Z,6.25
2022-11-24T20:48:51.890Z,6.35
2022-11-24T20:51:21.764Z,6.37
2022-11-24T20:53:49.985Z,6.44
2022-11-24T20:56:22.170Z,6.40
2022-11-24T20:58:52.719Z,6.29
2022-11-24T21:01:25.053Z,6.16
2022-11-24T21:03:57.015Z,6.14
2022-11-24T21:06:24.164Z,6.06
2022-11-24T21:08:51.335Z,5.99
2022-11-24T21:11:19.563Z,6.02
2022-11-24T21:13:47.831Z,6.01
2022-11-24T21:16:20.642Z,6.16
2022-11-24T21:18:53.315Z,6.15
2022-11-24T21:21:21.988Z,6.22
2022-11-24T21:23:49.497Z,6.15
2022-11-24T21:26:17.563Z,5.92
2022-11-24T21:28:46.734Z,5.84
2022-11-24T21:31:16.624Z,5.90
2022-11-24T21:33:45.611Z,5.80
2022-11-24T21:36:14.869Z,5.64
2022-11-24T21:38:42.832Z,5.54
2022-11-24T21:41:11.763Z,5.50
2022-11-24T21:43:38.851Z,5.44
2022-11-24T21:46:07.957Z,5.36
2022-11-24T21:48:36.110Z,5.36
2022-11-24T21:51:04.874Z,5.20
2022-11-24T21:53:34.733Z,5.09
2022-11-24T21:56:05.587Z,5.10
2022-11-24T21:58:33.681Z,4.94
2022-11-24T22:01:10.538Z,4.91
2022-11-24T22:03:37.716Z,4.95
2022-11-24T22:06:04.933Z,5.10
2022-11-24T22:08:32.283Z,5.18
2022-11-24T22:11:10.408Z,5.03
2022-11-24T22:13:37.299Z,4.92
2022-11-24T22:16:12.415Z,4.94
2022-11-24T22:18:41.310Z,4.82
2022-11-24T22:21:11.738Z,4.82
2022-11-24T22:23:38.640Z,4.78
2022-11-24T22:26:07.921Z,4.82
2022-11-24T22:28:36.415Z,4.79
2022-11-24T22:31:08.378Z,4.84
2022-11-24T22:33:35.341Z,4.72
2022-11-24T22:36:02.964Z,4.60
2022-11-24T22:38:31.885Z,4.43
2022-11-24T22:41:25.178Z,4.37
2022-11-24T22:43:52.023Z,4.37
2022-11-24T22:46:21.497Z,4.34
2022-11-24T22:48:49.934Z,4.29
2022-11-24T22:51:31.505Z,4.30
2022-11-24T22:54:00.691Z,4.33
2022-11-24T22:56:28.323Z,4.29
2022-11-24T22:58:55.181Z,4.26
2022-11-24T23:01:24.526Z,4.27
2022-11-24T23:03:54.629Z,4.25
2022-11-24T23:06:27.853Z,4.13
2022-11-24T23:08:55.596Z,4.13
2022-11-24T23:11:31.668Z,4.07
2022-11-24T23:14:02.558Z,4.03
2022-11-24T23:16:29.876Z,4.01
2022-11-24T23:18:57.449Z,4.12
2022-11-24T23:21:29.351Z,4.29
2022-11-24T23:23:56.801Z,4.13
2022-11-24T23:26:27.227Z,4.19
2022-11-24T23:28:54.389Z,4.15
2022-11-24T23:31:24.384Z,4.13
2022-11-24T23:33:51.363Z,4.10
2022-11-24T23:36:20.141Z,3.95
2022-11-24T23:38:47.943Z,3.88
2022-11-24T23:41:18.092Z,4.00
2022-11-24T23:43:45.024Z,3.97
2022-11-24T23:46:18.227Z,3.92
2022-11-24T23:48:45.582Z,3.94
2022-11-24T23:51:17.741Z,3.93
2022-11-24T23:53:45.296Z,3.85
2022-11-24T23:56:14.651Z,3.90
2022-11-24T23:58:41.867Z,4.00
